Time;durP1;ratioP1;P1;durP2;ratioP2;P2;SDS_P1;SDS_P2;PMS_P1;PMS_P2;Temp;Humidity;BMP_temperature;BMP_pressure;BME280_temperature;BME280_humidity;BME280_pressure;Samples;Min_cycle;Max_cycle;Signal;HPM_P1;HPM_P2
2020/12/30 00:00:17;;;;;;;25.65;5.55;;;13.80;99.90;;;;;;4840494;29;20029;-76
2020/12/30 00:02:43;;;;;;;29.17;7.10;;;13.80;99.90;;;;;;4836341;29;20022;-82
2020/12/30 00:05:11;;;;;;;29.70;5.47;;;13.80;99.90;;;;;;4836990;29;20022;-80
2020/12/30 00:07:40;;;;;;;28.73;5.35;;;13.80;99.90;;;;;;4836958;29;20058;-74
2020/12/30 00:10:10;;;;;;;32.42;6.55;;;13.80;99.90;;;;;;4832471;29;20291;-75
2020/12/30 00:12:37;;;;;;;27.23;5.53;;;13.90;99.90;;;;;;4832409;29;20041;-77
2020/12/30 00:15:04;;;;;;;39.63;9.10;;;13.90;99.90;;;;;;4826133;29;20034;-76
2020/12/30 00:17:31;;;;;;;31.13;5.18;;;13.90;99.90;;;;;;4833474;29;20106;-82
2020/12/30 00:19:57;;;;;;;25.65;5.93;;;13.90;99.90;;;;;;4839901;29;20041;-74
2020/12/30 00:22:23;;;;;;;23.42;4.93;;;13.90;99.90;;;;;;4829852;29;20029;-73
2020/12/30 00:24:49;;;;;;;24.67;5.53;;;13.90;99.90;;;;;;4835108;29;20030;-75
2020/12/30 00:27:15;;;;;;;28.75;6.30;;;14.00;99.90;;;;;;4839038;29;20029;-74
2020/12/30 00:29:42;;;;;;;28.63;5.63;;;13.90;99.90;;;;;;4835429;29;20435;-74
2020/12/30 00:32:11;;;;;;;28.17;5.25;;;13.90;99.90;;;;;;4829258;29;20473;-74
2020/12/30 00:34:39;;;;;;;33.53;6.13;;;13.90;99.90;;;;;;4839689;29;20077;-74
2020/12/30 00:37:05;;;;;;;29.05;5.75;;;13.90;99.90;;;;;;4822999;29;20083;-75
2020/12/30 00:39:31;;;;;;;30.75;5.38;;;13.90;99.90;;;;;;4839674;29;20034;-75
2020/12/30 00:41:58;;;;;;;31.10;6.15;;;13.90;99.90;;;;;;4832680;29;20027;-75
2020/12/30 00:44:24;;;;;;;31.45;6.72;;;14.00;99.90;;;;;;4831254;29;20034;-74
2020/12/30 00:46:58;;;;;;;29.13;5.35;;;14.00;99.90;;;;;;4826063;29;20070;-77
2020/12/30 00:49:25;;;;;;;;;;;14.00;99.90;;;;;;4839746;29;20038;-75
2020/12/30 00:51:56;;;;;;;22.30;4.57;;;14.00;99.90;;;;;;4839832;29;19919;-76
2020/12/30 00:54:25;;;;;;;37.08;6.47;;;14.00;99.90;;;;;;4823262;29;20069;-76
2020/12/30 00:56:52;;;;;;;40.40;6.88;;;14.00;99.90;;;;;;4839627;29;20106;-76
2020/12/30 00:59:20;;;;;;;21.20;5.90;;;14.00;99.90;;;;;;4837596;29;20034;-77
2020/12/30 01:01:51;;;;;;;28.15;5.53;;;14.00;99.90;;;;;;4823252;29;20087;-75
2020/12/30 01:04:26;;;;;;;32.53;6.13;;;14.00;99.90;;;;;;4823360;29;20082;-75
2020/12/30 01:06:53;;;;;;;28.63;5.50;;;14.00;99.90;;;;;;4839134;29;20050;-75
2020/12/30 01:09:24;;;;;;;37.28;6.22;;;14.00;99.90;;;;;;4838635;29;20037;-75
2020/12/30 01:11:51;;;;;;;29.95;5.97;;;14.00;99.90;;;;;;4839567;29;20064;-82
2020/12/30 01:14:17;;;;;;;28.48;7.32;;;14.00;99.90;;;;;;4839157;29;20042;-75
2020/12/30 01:16:51;;;;;;;32.67;5.93;;;14.00;99.90;;;;;;4839530;29;20388;-76
2020/12/30 01:19:18;;;;;;;26.20;5.90;;;14.00;99.90;;;;;;4838927;29;20109;-75
2020/12/30 01:21:44;;;;;;;37.05;7.50;;;14.10;99.90;;;;;;4839429;29;20063;-75
2020/12/30 01:24:11;;;;;;;26.27;5.13;;;14.00;99.90;;;;;;4838906;29;20049;-76
2020/12/30 01:26:38;;;;;;;34.08;5.93;;;14.00;99.90;;;;;;4839197;29;20034;-75
2020/12/30 01:29:05;;;;;;;38.22;6.97;;;14.00;99.90;;;;;;4838403;29;20108;-75
2020/12/30 01:31:32;;;;;;;32.20;6.10;;;14.00;99.90;;;;;;4839044;29;20030;-75
2020/12/30 01:33:59;;;;;;;32.33;6.47;;;14.00;99.90;;;;;;4838890;29;20042;-75
2020/12/30 01:36:25;;;;;;;25.77;6.32;;;14.00;99.90;;;;;;4838998;29;20388;-75
2020/12/30 01:38:54;;;;;;;30.02;5.28;;;14.00;99.90;;;;;;4838427;29;20473;-79
2020/12/30 01:41:21;;;;;;;28.83;5.82;;;14.00;99.90;;;;;;4838963;29;20042;-84
2020/12/30 01:44:07;;;;;;;23.75;6.38;;;14.00;99.90;;;;;;4839178;29;20037;-75
2020/12/30 01:46:37;;;;;;;35.28;6.35;;;14.00;99.90;;;;;;4839041;29;20067;-79
2020/12/30 01:49:08;;;;;;;37.38;7.13;;;14.00;99.90;;;;;;4838997;29;20038;-77
2020/12/30 01:51:37;;;;;;;29.85;5.97;;;14.00;99.90;;;;;;4836968;29;20406;-75
2020/12/30 01:54:03;;;;;;;32.08;5.70;;;14.00;99.90;;;;;;4839167;29;20034;-75
2020/12/30 01:56:32;;;;;;;26.88;5.38;;;14.00;99.90;;;;;;4822675;29;20034;-75
2020/12/30 01:58:59;;;;;;;42.67;7.03;;;14.00;99.90;;;;;;4838616;29;20030;-76
2020/12/30 02:01:29;;;;;;;26.63;5.72;;;14.00;99.90;;;;;;4838526;29;20030;-75
2020/12/30 02:03:57;;;;;;;22.95;5.55;;;14.00;99.90;;;;;;4838491;29;20038;-75
2020/12/30 02:06:24;;;;;;;37.72;8.45;;;14.00;99.90;;;;;;4838671;29;20398;-75
2020/12/30 02:08:51;;;;;;;22.23;5.03;;;14.00;99.90;;;;;;4839004;29;20136;-82
2020/12/30 02:11:20;;;;;;;45.53;7.18;;;14.00;99.90;;;;;;4838246;29;20179;-76
2020/12/30 02:13:46;;;;;;;39.15;7.72;;;14.00;99.90;;;;;;4838968;29;20042;-75
2020/12/30 02:16:12;;;;;;;32.40;5.00;;;14.00;99.90;;;;;;4838552;29;20030;-75
2020/12/30 02:18:38;;;;;;;37.03;7.45;;;14.00;99.90;;;;;;4838724;29;20449;-82
2020/12/30 02:21:04;;;;;;;37.35;7.18;;;14.00;99.90;;;;;;4838364;29;20026;-76
2020/12/30 02:23:33;;;;;;;29.88;5.57;;;14.00;99.90;;;;;;4838572;29;20026;-75
2020/12/30 02:25:59;;;;;;;32.90;5.90;;;14.10;99.90;;;;;;4838719;29;20101;-75
2020/12/30 02:28:25;;;;;;;31.65;6.47;;;14.10;99.90;;;;;;4838582;29;20042;-76
2020/12/30 02:30:53;;;;;;;26.70;5.88;;;14.10;99.90;;;;;;4838264;29;20038;-76
2020/12/30 02:33:19;;;;;;;27.52;6.72;;;14.10;99.90;;;;;;4838536;29;20867;-76
2020/12/30 02:35:45;;;;;;;39.22;8.18;;;14.10;99.90;;;;;;4838611;29;20163;-77
2020/12/30 02:38:12;;;;;;;47.28;6.40;;;14.10;99.90;;;;;;4838625;29;20492;-76
2020/12/30 02:40:37;;;;;;;29.35;7.35;;;14.00;99.90;;;;;;4822143;29;20034;-75
2020/12/30 02:43:03;;;;;;;26.58;6.38;;;14.00;99.90;;;;;;4838205;29;20504;-76
2020/12/30 02:45:29;;;;;;;40.20;5.70;;;14.00;99.90;;;;;;4838347;29;20037;-82
2020/12/30 02:47:55;;;;;;;40.45;7.22;;;14.00;99.90;;;;;;4838287;29;20030;-75
2020/12/30 02:50:21;;;;;;;41.03;7.95;;;14.00;99.90;;;;;;4838534;29;20038;-75
2020/12/30 02:52:47;;;;;;;39.55;7.85;;;14.00;99.90;;;;;;4840505;29;20125;-75
2020/12/30 02:55:13;;;;;;;39.88;8.57;;;14.00;99.90;;;;;;4842000;29;20044;-75
2020/12/30 02:57:39;;;;;;;28.55;5.60;;;14.00;99.90;;;;;;4841790;29;20033;-75
2020/12/30 03:00:05;;;;;;;30.20;5.72;;;14.00;99.90;;;;;;4841696;29;20033;-75
2020/12/30 03:02:31;;;;;;;36.90;6.80;;;14.00;99.90;;;;;;4841170;29;20022;-77
2020/12/30 03:05:01;;;;;;;27.67;5.80;;;14.00;99.90;;;;;;4841509;29;20083;-75
2020/12/30 03:07:27;;;;;;;30.42;6.63;;;14.10;99.90;;;;;;4822986;29;20694;-75
2020/12/30 03:09:53;;;;;;;45.67;8.15;;;14.10;99.90;;;;;;4823048;29;20046;-75
2020/12/30 03:12:19;;;;;;;35.50;8.77;;;14.10;99.90;;;;;;4826497;29;20110;-75
2020/12/30 03:14:45;;;;;;;27.85;5.82;;;14.10;99.90;;;;;;4841801;29;20129;-75
2020/12/30 03:17:11;;;;;;;24.30;6.53;;;14.10;99.90;;;;;;4841436;29;20083;-75
2020/12/30 03:19:37;;;;;;;39.17;7.43;;;14.10;99.90;;;;;;4841546;29;20026;-75
2020/12/30 03:22:03;;;;;;;30.90;7.45;;;14.10;99.90;;;;;;4840918;29;20504;-77
2020/12/30 03:24:29;;;;;;;42.83;7.97;;;14.10;99.90;;;;;;4840921;29;20088;-75
2020/12/30 03:26:55;;;;;;;32.25;6.68;;;14.10;99.90;;;;;;4841345;29;20481;-76
2020/12/30 03:29:21;;;;;;;36.47;6.78;;;14.10;99.90;;;;;;4841160;29;20037;-76
2020/12/30 03:31:47;;;;;;;49.40;8.80;;;14.10;99.90;;;;;;4841246;29;20034;-75
2020/12/30 03:34:13;;;;;;;32.35;6.75;;;14.10;99.90;;;;;;4840728;29;20038;-75
2020/12/30 03:36:39;;;;;;;50.45;8.30;;;14.10;99.90;;;;;;4840996;29;20396;-75
2020/12/30 03:39:05;;;;;;;19.63;5.88;;;14.00;99.90;;;;;;4824596;29;20038;-78
2020/12/30 03:41:31;;;;;;;37.17;6.22;;;14.10;99.90;;;;;;4841052;29;20114;-75
2020/12/30 03:43:57;;;;;;;38.75;7.50;;;14.00;99.90;;;;;;4849668;29;20041;-75
2020/12/30 03:46:23;;;;;;;37.78;6.28;;;14.00;99.90;;;;;;4841007;29;20033;-75
2020/12/30 03:48:49;;;;;;;42.40;7.88;;;14.00;99.90;;;;;;4835211;29;20038;-75
2020/12/30 03:51:15;;;;;;;37.90;8.30;;;14.00;99.90;;;;;;4840332;29;20389;-75
2020/12/30 03:53:41;;;;;;;34.65;6.30;;;14.00;99.90;;;;;;4840151;29;20489;-75
2020/12/30 03:56:07;;;;;;;32.90;6.95;;;14.00;99.90;;;;;;4840070;29;20030;-76
2020/12/30 03:58:34;;;;;;;41.42;6.80;;;14.00;99.90;;;;;;4839379;29;20121;-75
2020/12/30 04:00:59;;;;;;;34.55;6.53;;;14.10;99.90;;;;;;4840879;29;20159;-80
2020/12/30 04:03:25;;;;;;;32.17;6.13;;;14.10;99.90;;;;;;4840148;29;20038;-75
2020/12/30 04:05:51;;;;;;;28.13;6.25;;;14.10;99.90;;;;;;4839929;29;20057;-76
2020/12/30 04:08:19;;;;;;;25.60;9.18;;;14.10;99.90;;;;;;4840371;29;20034;-74
2020/12/30 04:10:45;;;;;;;30.58;6.07;;;14.10;99.90;;;;;;4840462;29;20122;-75
2020/12/30 04:13:11;;;;;;;24.20;6.75;;;14.10;99.90;;;;;;4840232;29;20082;-75
2020/12/30 04:15:37;;;;;;;42.55;7.38;;;14.10;99.90;;;;;;4823474;29;20057;-75
2020/12/30 04:18:03;;;;;;;44.13;7.32;;;14.00;99.90;;;;;;4840090;29;20052;-75
2020/12/30 04:20:29;;;;;;;36.90;6.70;;;14.10;99.90;;;;;;4840655;29;20512;-79
2020/12/30 04:22:55;;;;;;;38.72;7.93;;;14.00;99.90;;;;;;4839144;29;20038;-74
2020/12/30 04:25:21;;;;;;;38.60;6.53;;;14.10;99.90;;;;;;4839598;29;20026;-75
2020/12/30 04:27:47;;;;;;;40.92;7.47;;;14.10;99.90;;;;;;4840120;29;20042;-75
2020/12/30 04:30:13;;;;;;;42.65;6.65;;;14.10;99.90;;;;;;4840207;29;20046;-75
2020/12/30 04:32:39;;;;;;;36.75;6.88;;;14.10;99.90;;;;;;4840116;29;20429;-75
2020/12/30 04:35:06;;;;;;;40.22;6.78;;;14.10;99.90;;;;;;4839680;29;20034;-75
2020/12/30 04:37:32;;;;;;;32.90;7.20;;;14.10;99.90;;;;;;4840398;29;20485;-75
2020/12/30 04:39:59;;;;;;;31.35;5.85;;;14.10;99.90;;;;;;4840135;29;20038;-76
2020/12/30 04:42:32;;;;;;;24.85;6.28;;;14.10;99.90;;;;;;4823450;29;20125;-75
2020/12/30 04:45:02;;;;;;;42.30;7.75;;;14.10;99.90;;;;;;4839834;29;20037;-75
2020/12/30 04:47:29;;;;;;;49.55;7.78;;;14.10;99.90;;;;;;4821214;29;20132;-75
2020/12/30 04:49:55;;;;;;;32.60;8.60;;;14.10;99.90;;;;;;4839682;29;20037;-78
2020/12/30 04:52:25;;;;;;;40.47;6.53;;;14.10;99.90;;;;;;4839695;29;20034;-75
2020/12/30 04:54:51;;;;;;;38.17;7.57;;;14.10;99.90;;;;;;4839912;29;20488;-75
2020/12/30 04:57:41;;;;;;;33.17;6.03;;;14.10;99.90;;;;;;4839218;29;20068;-75
2020/12/30 05:00:08;;;;;;;35.53;7.10;;;14.10;99.90;;;;;;4839394;29;20065;-76
2020/12/30 05:02:39;;;;;;;37.13;6.07;;;14.10;99.90;;;;;;4839521;29;20026;-75
2020/12/30 05:05:06;;;;;;;44.60;5.57;;;14.10;99.90;;;;;;4838971;29;20034;-76
2020/12/30 05:07:33;;;;;;;31.83;7.00;;;14.10;99.90;;;;;;4839064;29;20164;-75
2020/12/30 05:09:59;;;;;;;42.58;7.93;;;14.10;99.90;;;;;;4839370;29;20481;-80
2020/12/30 05:12:26;;;;;;;41.90;7.32;;;14.10;99.90;;;;;;4839608;29;20135;-80
2020/12/30 05:14:52;;;;;;;40.70;8.68;;;14.00;99.90;;;;;;4838680;29;20042;-78
2020/12/30 05:17:18;;;;;;;25.15;6.70;;;14.00;99.90;;;;;;4838862;29;20033;-75
2020/12/30 05:19:45;;;;;;;26.85;7.05;;;14.00;99.90;;;;;;4839362;29;20499;-75
2020/12/30 05:22:17;;;;;;;34.75;7.43;;;14.00;99.90;;;;;;4839217;29;20477;-75
2020/12/30 05:24:45;;;;;;;26.63;5.65;;;14.00;99.90;;;;;;4839610;29;20030;-77
2020/12/30 05:27:13;;;;;;;27.98;5.28;;;13.90;99.90;;;;;;4822544;29;20450;-75
2020/12/30 05:29:52;;;;;;;27.15;5.65;;;14.00;99.90;;;;;;4839876;29;20485;-75
2020/12/30 05:32:19;;;;;;;24.20;6.43;;;14.00;99.90;;;;;;4839111;29;20044;-74
2020/12/30 05:34:45;;;;;;;26.02;7.47;;;14.00;99.90;;;;;;4822760;29;20061;-75
2020/12/30 05:37:13;;;;;;;33.22;7.55;;;14.00;99.90;;;;;;4822538;29;20486;-75
2020/12/30 05:39:39;;;;;;;34.38;6.75;;;14.10;99.90;;;;;;4838967;29;20030;-74
2020/12/30 05:42:20;;;;;;;31.08;7.00;;;14.10;99.90;;;;;;4838955;29;20057;-76
2020/12/30 05:44:50;;;;;;;33.53;6.70;;;14.10;99.90;;;;;;4838989;29;20052;-75
2020/12/30 05:47:19;;;;;;;37.85;6.60;;;14.10;99.90;;;;;;4838807;29;20049;-77
2020/12/30 05:49:46;;;;;;;26.45;7.22;;;14.00;99.90;;;;;;4838717;29;20430;-75
2020/12/30 05:52:13;;;;;;;28.92;6.03;;;14.10;99.90;;;;;;4838829;29;20038;-75
2020/12/30 05:54:44;;;;;;;42.17;7.80;;;14.10;99.90;;;;;;4838952;29;20034;-75
2020/12/30 05:57:30;;;;;;;33.95;6.25;;;14.10;99.90;;;;;;4838744;29;20409;-76
2020/12/30 05:59:59;;;;;;;42.47;8.73;;;14.10;99.90;;;;;;4836632;29;20036;-75
2020/12/30 06:02:29;;;;;;;37.88;7.07;;;14.10;99.90;;;;;;4822135;29;20034;-76
2020/12/30 06:05:16;;;;;;;34.83;7.28;;;14.10;99.90;;;;;;4838711;29;20121;-75
2020/12/30 06:07:44;;;;;;;27.65;6.28;;;14.20;99.90;;;;;;4838719;29;20454;-75
2020/12/30 06:10:17;;;;;;;34.10;6.25;;;14.20;99.90;;;;;;4838267;29;20098;-74
2020/12/30 06:12:51;;;;;;;23.73;6.07;;;14.20;99.90;;;;;;4838423;29;20065;-75
2020/12/30 06:15:23;;;;;;;35.50;7.72;;;14.20;99.90;;;;;;4838841;29;20049;-75
2020/12/30 06:18:01;;;;;;;34.50;7.00;;;14.20;99.90;;;;;;4838790;29;20048;-76
2020/12/30 06:20:33;;;;;;;34.63;6.78;;;14.30;99.90;;;;;;4838269;29;20550;-75
2020/12/30 06:23:14;;;;;;;34.47;7.50;;;14.30;99.90;;;;;;4838659;29;20058;-75
2020/12/30 06:25:42;;;;;;;40.70;6.85;;;14.30;99.90;;;;;;4840011;29;20029;-75
2020/12/30 06:28:13;;;;;;;37.92;7.13;;;14.20;99.90;;;;;;4842610;29;20034;-75
2020/12/30 06:30:41;;;;;;;32.85;7.53;;;14.10;99.90;;;;;;4842040;29;20030;-75
2020/12/30 06:33:08;;;;;;;40.10;6.60;;;14.10;99.90;;;;;;4841841;29;20034;-75
2020/12/30 06:35:36;;;;;;;43.88;6.43;;;14.20;99.90;;;;;;4825542;29;20113;-77
2020/12/30 06:38:26;;;;;;;43.25;7.60;;;14.10;99.90;;;;;;4841876;29;20835;-74
2020/12/30 06:41:02;;;;;;;33.45;7.30;;;14.10;99.90;;;;;;4841904;29;20121;-79
2020/12/30 06:43:38;;;;;;;28.27;6.57;;;14.10;99.90;;;;;;4825508;29;20046;-75
2020/12/30 06:46:04;;;;;;;32.45;7.47;;;14.10;99.90;;;;;;4841825;29;20038;-75
2020/12/30 06:49:00;;;;;;;39.58;7.97;;;14.10;99.90;;;;;;4842206;29;20037;-77
2020/12/30 06:51:34;;;;;;;25.13;5.32;;;14.10;99.90;;;;;;4833960;29;20074;-78
2020/12/30 06:54:01;;;;;;;41.45;6.88;;;14.10;99.90;;;;;;4841619;29;20037;-75
2020/12/30 06:56:41;;;;;;;28.15;5.55;;;14.10;99.90;;;;;;4841878;29;20397;-75
2020/12/30 06:59:08;;;;;;;33.15;6.75;;;14.20;99.90;;;;;;4841666;29;20493;-75
2020/12/30 07:02:13;;;;;;;37.22;6.70;;;14.20;99.90;;;;;;4841384;29;20116;-74
2020/12/30 07:04:58;;;;;;;40.70;7.90;;;14.20;99.90;;;;;;4791788;29;20083;-75
2020/12/30 07:07:24;;;;;;;41.85;8.38;;;14.30;99.90;;;;;;4823040;29;20042;-79
2020/12/30 07:09:50;;;;;;;43.53;8.70;;;14.30;99.90;;;;;;4823484;29;20148;-75
2020/12/30 07:12:16;;;;;;;40.97;7.85;;;14.30;99.90;;;;;;4841070;29;20034;-75
2020/12/30 07:14:42;;;;;;;38.40;8.90;;;14.30;99.90;;;;;;4825100;29;20041;-75
2020/12/30 07:17:09;;;;;;;28.77;7.30;;;14.30;99.90;;;;;;4840298;29;20050;-78
2020/12/30 07:19:36;;;;;;;44.95;8.65;;;14.40;99.90;;;;;;4841267;29;20034;-80
2020/12/30 07:22:10;;;;;;;39.60;9.18;;;14.40;99.90;;;;;;4840691;29;20037;-75
2020/12/30 07:24:45;;;;;;;42.13;7.88;;;14.40;99.90;;;;;;4841309;29;20041;-75
2020/12/30 07:27:13;;;;;;;28.42;7.95;;;14.40;99.90;;;;;;4841064;29;20034;-75
2020/12/30 07:29:46;;;;;;;37.10;6.32;;;14.40;99.90;;;;;;4834674;29;20037;-74
2020/12/30 07:32:13;;;;;;;38.53;7.50;;;14.40;99.90;;;;;;4838141;29;20445;-75
2020/12/30 07:34:45;;;;;;;33.17;7.65;;;14.50;99.90;;;;;;4841051;29;20038;-75
2020/12/30 07:37:12;;;;;;;43.00;9.00;;;14.60;99.90;;;;;;4840438;29;20079;-75
2020/12/30 07:39:41;;;;;;;36.28;7.20;;;14.60;99.90;;;;;;4840328;29;20060;-75
2020/12/30 07:42:11;;;;;;;44.60;8.32;;;14.70;99.90;;;;;;4840870;29;20116;-75
2020/12/30 07:44:45;;;;;;;40.50;7.55;;;14.70;99.90;;;;;;4840944;29;20489;-74
2020/12/30 07:47:12;;;;;;;26.38;6.78;;;14.80;99.90;;;;;;4840999;29;20037;-76
2020/12/30 07:49:38;;;;;;;33.22;7.50;;;14.80;99.90;;;;;;4841098;29;20040;-76
2020/12/30 07:52:04;;;;;;;37.00;8.43;;;14.80;99.90;;;;;;4840383;29;20037;-77
2020/12/30 07:54:31;;;;;;;38.28;6.40;;;14.80;99.90;;;;;;4840808;29;20042;-74
2020/12/30 07:57:03;;;;;;;41.03;5.97;;;14.90;99.90;;;;;;4840616;29;20521;-74
2020/12/30 07:59:29;;;;;;;31.92;4.90;;;14.90;99.90;;;;;;4841137;29;20038;-76
2020/12/30 08:02:04;;;;;;;37.25;8.05;;;14.90;99.90;;;;;;4840145;29;20026;-73
2020/12/30 08:04:32;;;;;;;35.38;6.28;;;15.00;99.90;;;;;;4840387;29;20026;-75
2020/12/30 08:06:58;;;;;;;35.42;7.15;;;15.00;99.90;;;;;;4840580;29;20061;-73
2020/12/30 08:09:27;;;;;;;40.38;7.70;;;15.10;99.90;;;;;;4840582;29;20117;-76
2020/12/30 08:12:00;;;;;;;29.73;7.22;;;15.20;99.90;;;;;;4830837;29;20030;-74
2020/12/30 08:14:27;;;;;;;;;;;15.20;99.90;;;;;;4832297;29;20038;-73
2020/12/30 08:17:06;;;;;;;31.70;5.88;;;15.30;99.90;;;;;;4823530;29;19927;-74
2020/12/30 08:19:43;;;;;;;22.55;5.47;;;15.40;99.90;;;;;;4821259;29;20045;-74
2020/12/30 08:22:12;;;;;;;26.90;5.70;;;15.40;99.90;;;;;;4839047;29;20034;-76
2020/12/30 08:24:40;;;;;;;24.67;5.15;;;15.40;99.90;;;;;;4829327;29;20423;-73
2020/12/30 08:27:07;;;;;;;38.83;6.10;;;15.50;99.90;;;;;;4835623;29;20073;-76
2020/12/30 08:29:36;;;;;;;30.58;5.53;;;15.50;99.90;;;;;;4829877;29;20393;-74
2020/12/30 08:32:13;;;;;;;36.50;6.65;;;15.50;99.90;;;;;;4839286;29;20025;-74
2020/12/30 08:34:55;;;;;;;35.30;7.38;;;15.50;99.90;;;;;;4827227;29;20125;-80
2020/12/30 08:37:24;;;;;;;41.63;6.85;;;15.60;99.90;;;;;;4820187;29;20037;-74
2020/12/30 08:39:56;;;;;;;48.50;6.68;;;15.60;99.90;;;;;;4826202;29;20033;-81
2020/12/30 08:42:53;;;;;;;36.05;8.25;;;15.60;99.90;;;;;;4833682;29;20026;-74
2020/12/30 08:45:30;;;;;;;33.90;5.78;;;15.60;99.90;;;;;;4836872;29;20131;-75
2020/12/30 08:47:59;;;;;;;36.22;6.13;;;15.70;99.90;;;;;;4838553;29;20040;-75
2020/12/30 08:50:27;;;;;;;46.83;6.25;;;15.70;99.90;;;;;;4838415;29;20065;-75
2020/12/30 08:52:57;;;;;;;36.78;5.95;;;15.80;99.90;;;;;;4839260;29;20033;-74
2020/12/30 08:55:23;;;;;;;37.05;8.10;;;15.80;99.90;;;;;;4830644;29;20042;-75
2020/12/30 08:57:49;;;;;;;25.17;6.15;;;15.80;99.90;;;;;;4832711;29;20038;-75
2020/12/30 09:00:24;;;;;;;49.20;7.95;;;15.80;99.90;;;;;;4838701;29;20042;-75
2020/12/30 09:02:52;;;;;;;29.60;6.38;;;15.90;99.90;;;;;;4837686;29;20030;-76
2020/12/30 09:05:31;;;;;;;38.75;6.38;;;16.00;99.90;;;;;;4837816;29;20117;-76
2020/12/30 09:08:18;;;;;;;40.58;8.30;;;16.00;99.90;;;;;;4838785;29;20509;-77
2020/12/30 09:10:45;;;;;;;36.55;7.70;;;16.10;99.90;;;;;;4824751;29;20508;-77
2020/12/30 09:13:16;;;;;;;42.53;8.55;;;16.10;99.90;;;;;;4832056;29;20075;-76
2020/12/30 09:15:43;;;;;;;38.42;5.80;;;16.20;99.90;;;;;;4818016;29;20087;-77
2020/12/30 09:18:12;;;;;;;27.20;7.10;;;16.20;99.90;;;;;;4839013;29;20030;-75
2020/12/30 09:20:38;;;;;;;41.00;6.50;;;16.20;99.90;;;;;;4836171;29;20068;-76
2020/12/30 09:23:08;;;;;;;38.97;5.93;;;16.30;99.90;;;;;;4821602;29;20057;-76
2020/12/30 09:25:36;;;;;;;30.42;7.20;;;16.20;99.90;;;;;;4836334;29;20034;-76
2020/12/30 09:28:17;;;;;;;31.85;6.28;;;16.30;99.90;;;;;;4838238;29;20370;-76
2020/12/30 09:30:44;;;;;;;45.88;5.93;;;16.30;99.90;;;;;;4835255;29;20025;-76
2020/12/30 09:33:16;;;;;;;36.15;6.75;;;16.30;99.90;;;;;;4838539;29;20026;-82
2020/12/30 09:35:42;;;;;;;32.67;5.43;;;16.50;99.90;;;;;;4838268;29;20101;-76
2020/12/30 09:38:17;;;;;;;28.55;5.78;;;16.50;99.90;;;;;;4834638;29;20034;-76
2020/12/30 09:40:45;;;;;;;30.05;6.45;;;16.60;99.90;;;;;;4835445;29;20102;-78
2020/12/30 09:43:19;;;;;;;31.67;7.10;;;16.50;99.90;;;;;;4837742;29;20038;-75
2020/12/30 09:45:47;;;;;;;47.20;7.20;;;16.50;99.90;;;;;;4820628;29;20410;-76
2020/12/30 09:48:13;;;;;;;35.65;5.85;;;16.50;99.90;;;;;;4827304;29;20463;-76
2020/12/30 09:50:40;;;;;;;47.92;7.20;;;16.50;99.90;;;;;;4826571;29;20481;-77
2020/12/30 09:53:07;;;;;;;39.70;6.05;;;16.60;99.90;;;;;;4835986;29;20034;-76
2020/12/30 09:55:34;;;;;;;38.33;7.30;;;16.50;99.90;;;;;;4838809;29;20038;-79
2020/12/30 09:58:00;;;;;;;26.95;7.03;;;16.40;99.90;;;;;;4835007;29;20079;-75
2020/12/30 10:00:26;;;;;;;37.60;6.38;;;16.40;99.90;;;;;;4834456;29;20447;-76
2020/12/30 10:02:53;;;;;;;27.33;6.30;;;16.20;99.90;;;;;;4840872;29;20065;-77
2020/12/30 10:05:19;;;;;;;39.40;7.55;;;16.20;99.90;;;;;;4827803;29;20038;-78
2020/12/30 10:07:45;;;;;;;26.95;5.55;;;16.20;99.90;;;;;;4821051;29;20061;-77
2020/12/30 10:10:11;;;;;;;31.27;6.45;;;16.10;99.90;;;;;;4837703;29;20044;-78
2020/12/30 10:12:38;;;;;;;49.38;8.25;;;16.10;99.90;;;;;;4841906;29;20816;-78
2020/12/30 10:15:08;;;;;;;33.55;5.75;;;16.00;99.90;;;;;;4830591;29;20135;-74
2020/12/30 10:17:35;;;;;;;29.00;5.95;;;15.90;99.90;;;;;;4841365;29;20034;-74
2020/12/30 10:20:03;;;;;;;27.90;5.68;;;15.80;99.90;;;;;;4837382;29;20086;-74
2020/12/30 10:22:31;;;;;;;29.73;7.40;;;15.70;99.90;;;;;;4839952;29;20446;-76
2020/12/30 10:24:58;;;;;;;22.05;4.47;;;15.60;99.90;;;;;;4835895;29;20036;-76
2020/12/30 10:27:27;;;;;;;37.97;5.55;;;15.40;99.90;;;;;;4836204;29;20111;-76
2020/12/30 10:29:53;;;;;;;19.15;4.45;;;15.20;99.90;;;;;;4833375;29;20030;-76
2020/12/30 10:32:19;;;;;;;8.80;2.80;;;14.70;99.90;;;;;;4829992;29;20121;-78
2020/12/30 10:34:45;;;;;;;10.95;2.65;;;14.40;99.90;;;;;;4839936;29;20052;-77
2020/12/30 10:37:12;;;;;;;22.83;4.40;;;14.30;99.90;;;;;;4822025;29;20034;-78
2020/12/30 10:39:38;;;;;;;22.33;4.35;;;14.20;99.90;;;;;;4834902;29;20393;-78
2020/12/30 10:42:04;;;;;;;17.77;4.30;;;14.10;99.90;;;;;;4814495;29;20450;-77
2020/12/30 10:44:34;;;;;;;26.23;4.35;;;14.00;99.90;;;;;;4839657;29;20368;-77
2020/12/30 10:47:00;;;;;;;21.88;6.00;;;14.00;99.90;;;;;;4838702;29;20036;-76
2020/12/30 10:49:26;;;;;;;30.33;4.80;;;14.10;99.90;;;;;;4819202;29;20042;-77
2020/12/30 10:51:52;;;;;;;35.30;5.55;;;14.20;99.90;;;;;;4834962;29;20022;-77
2020/12/30 10:54:21;;;;;;;36.15;6.75;;;14.50;99.90;;;;;;4841351;29;20125;-77
2020/12/30 10:56:49;;;;;;;38.60;6.72;;;14.70;99.90;;;;;;4820790;29;20422;-77
2020/12/30 10:59:15;;;;;;;36.72;7.00;;;14.90;99.90;;;;;;4833472;29;20378;-77
2020/12/30 11:01:42;;;;;;;41.60;6.75;;;15.10;99.90;;;;;;4833502;29;20037;-77
2020/12/30 11:04:20;;;;;;;34.70;8.73;;;15.30;99.90;;;;;;4813955;29;20051;-77
2020/12/30 11:06:53;;;;;;;25.13;6.05;;;15.40;99.90;;;;;;4834133;29;20057;-77
2020/12/30 11:09:20;;;;;;;36.22;6.78;;;15.60;99.90;;;;;;4834069;29;20040;-78
2020/12/30 11:11:48;;;;;;;28.13;7.18;;;15.80;99.90;;;;;;4822653;29;20463;-77
2020/12/30 11:14:14;;;;;;;35.80;8.43;;;16.20;99.90;;;;;;4839659;29;20124;-78
2020/12/30 11:16:40;;;;;;;34.00;5.90;;;16.30;99.90;;;;;;4836434;29;20022;-76
2020/12/30 11:19:07;;;;;;;34.33;7.63;;;16.30;99.90;;;;;;4827253;29;20045;-76
2020/12/30 11:21:33;;;;;;;44.03;7.57;;;16.30;99.90;;;;;;4834329;29;20474;-76
2020/12/30 11:23:59;;;;;;;28.52;6.32;;;16.40;99.90;;;;;;4833263;29;20027;-77
2020/12/30 11:26:25;;;;;;;29.98;6.45;;;16.30;99.90;;;;;;4838456;29;20045;-76
2020/12/30 11:28:51;;;;;;;46.78;8.65;;;16.20;99.90;;;;;;4837487;29;20397;-76
2020/12/30 11:31:17;;;;;;;33.55;6.90;;;16.10;99.90;;;;;;4832608;29;20046;-76
2020/12/30 11:33:53;;;;;;;30.00;6.13;;;16.10;99.90;;;;;;4831470;29;20497;-76
2020/12/30 11:36:27;;;;;;;29.60;7.63;;;16.40;99.90;;;;;;4822828;29;20033;-76
2020/12/30 11:38:53;;;;;;;36.92;6.05;;;16.60;99.90;;;;;;4839580;29;20105;-75
2020/12/30 11:41:19;;;;;;;33.17;6.55;;;16.40;99.90;;;;;;4830463;29;20109;-74
2020/12/30 11:43:46;;;;;;;32.85;7.45;;;16.50;99.90;;;;;;4825825;29;20038;-74
2020/12/30 11:46:16;;;;;;;20.83;6.07;;;16.70;99.90;;;;;;4829501;29;20408;-75
2020/12/30 11:48:42;;;;;;;34.67;6.53;;;16.50;99.90;;;;;;4836251;29;20026;-74
2020/12/30 11:51:08;;;;;;;29.58;7.00;;;16.30;99.90;;;;;;4839780;29;20408;-77
2020/12/30 11:53:34;;;;;;;36.17;5.25;;;16.10;99.90;;;;;;4829458;29;20508;-75
2020/12/30 11:56:01;;;;;;;32.10;6.93;;;15.90;99.90;;;;;;4825570;29;20408;-74
2020/12/30 11:58:28;;;;;;;27.83;7.43;;;15.90;99.90;;;;;;4836772;29;20030;-76
2020/12/30 12:00:57;;;;;;;34.47;5.80;;;15.80;99.90;;;;;;4837158;29;20030;-78
2020/12/30 12:03:23;;;;;;;28.58;6.38;;;15.80;99.90;;;;;;4819437;29;20174;-74
2020/12/30 12:05:49;;;;;;;29.58;6.93;;;16.00;99.90;;;;;;4833803;29;20038;-81
2020/12/30 12:08:15;;;;;;;32.88;5.93;;;16.20;99.90;;;;;;4839317;29;20113;-78
2020/12/30 12:10:41;;;;;;;22.98;5.65;;;16.40;99.90;;;;;;4828198;29;20518;-73
2020/12/30 12:13:07;;;;;;;34.33;6.20;;;16.70;99.90;;;;;;4836765;29;20087;-77
2020/12/30 12:15:33;;;;;;;30.08;6.95;;;16.70;99.90;;;;;;4832247;29;20122;-75
2020/12/30 12:17:59;;;;;;;26.92;7.18;;;16.60;99.90;;;;;;4831783;29;20022;-76
2020/12/30 12:20:25;;;;;;;37.42;7.07;;;16.70;99.90;;;;;;4829464;29;20109;-75
2020/12/30 12:22:52;;;;;;;45.55;7.15;;;16.50;99.90;;;;;;4835998;29;20069;-76
2020/12/30 12:25:18;;;;;;;38.70;6.60;;;16.60;99.90;;;;;;4828049;29;20058;-76
2020/12/30 12:27:44;;;;;;;27.05;5.63;;;16.50;99.90;;;;;;4834828;29;20053;-75
2020/12/30 12:30:10;;;;;;;27.83;6.80;;;16.40;99.90;;;;;;4830297;29;20113;-73
2020/12/30 12:32:36;;;;;;;41.20;8.73;;;16.40;99.90;;;;;;4834919;29;20086;-74
2020/12/30 12:35:02;;;;;;;28.70;6.65;;;16.30;99.90;;;;;;4831713;29;20046;-75
2020/12/30 12:37:28;;;;;;;42.20;7.13;;;16.40;99.90;;;;;;4827910;29;20030;-75
2020/12/30 12:39:54;;;;;;;34.60;6.25;;;16.60;99.90;;;;;;4828259;29;20050;-74
2020/12/30 12:42:22;;;;;;;32.33;8.32;;;16.60;99.90;;;;;;4830492;29;20094;-75
2020/12/30 12:44:49;;;;;;;33.38;7.75;;;16.60;99.90;;;;;;4838731;29;20042;-75